Time;durP1;ratioP1;P1;durP2;ratioP2;P2;SDS_P1;SDS_P2;PMS_P1;PMS_P2;Temp;Humidity;BMP_temperature;BMP_pressure;BME280_temperature;BME280_humidity;BME280_pressure;Samples;Min_cycle;Max_cycle;Signal;HPM_P1;HPM_P2
2022/01/06 00:00:28;;;;;;;28.33;6.60;;;4.40;99.90;;;;;;5004027;28;20230;-88
2022/01/06 00:02:56;;;;;;;22.43;6.27;;;4.40;99.90;;;;;;5007090;28;20308;-88
2022/01/06 00:05:23;;;;;;;22.47;5.50;;;4.50;99.90;;;;;;5008449;28;20339;-88
2022/01/06 00:07:50;;;;;;;22.53;5.97;;;4.70;99.90;;;;;;5009444;28;20230;-88
2022/01/06 00:10:17;;;;;;;15.87;5.33;;;4.70;99.90;;;;;;5022009;28;20214;-87
2022/01/06 00:12:49;;;;;;;18.27;5.03;;;5.90;99.90;;;;;;5020263;28;20744;-88
2022/01/06 00:15:30;;;;;;;20.00;6.20;;;4.70;99.90;;;;;;5004590;28;20293;-88
2022/01/06 00:18:15;;;;;;;17.63;5.27;;;4.60;99.90;;;;;;5020482;28;20571;-88
2022/01/06 00:23:31;;;;;;;19.63;5.43;;;4.60;99.90;;;;;;5022532;28;20206;-88
2022/01/06 00:25:59;;;;;;;27.00;6.87;;;4.50;99.90;;;;;;5005229;28;20255;-88
2022/01/06 00:28:27;;;;;;;30.70;6.73;;;4.40;99.90;;;;;;5005005;28;20214;-87
2022/01/06 00:30:54;;;;;;;28.47;5.83;;;4.40;99.90;;;;;;5007171;28;20214;-87
2022/01/06 00:33:23;;;;;;;21.73;5.40;;;4.30;99.90;;;;;;5018759;28;20218;-88
2022/01/06 00:35:50;;;;;;;26.13;5.70;;;4.30;99.90;;;;;;5003072;28;20218;-88
2022/01/06 00:38:17;;;;;;;21.27;5.03;;;4.30;99.90;;;;;;5003297;28;20210;-88
2022/01/06 00:40:44;;;;;;;22.43;6.33;;;4.20;99.90;;;;;;5018481;28;20218;-88
2022/01/06 00:43:12;;;;;;;21.10;5.47;;;4.20;99.90;;;;;;5005543;28;20214;-87
2022/01/06 00:45:39;;;;;;;17.13;4.23;;;4.20;99.90;;;;;;5003026;28;20698;-87
2022/01/06 00:48:09;;;;;;;26.50;5.27;;;4.10;99.90;;;;;;5003713;28;20576;-87
2022/01/06 00:50:38;;;;;;;24.47;7.00;;;4.10;99.90;;;;;;5021452;28;20842;-90
2022/01/06 00:53:05;;;;;;;16.97;4.93;;;4.00;99.90;;;;;;5004208;28;20226;-87
2022/01/06 00:55:33;;;;;;;22.07;4.50;;;4.00;99.90;;;;;;5005311;28;20211;-88
2022/01/06 00:58:00;;;;;;;29.43;5.80;;;4.50;99.90;;;;;;5021995;28;20238;-87
2022/01/06 01:00:31;;;;;;;23.33;6.17;;;4.00;99.90;;;;;;5004427;28;20610;-87
2022/01/06 01:02:58;;;;;;;22.10;5.40;;;3.90;99.90;;;;;;5004433;28;20270;-88
2022/01/06 01:05:25;;;;;;;28.40;6.43;;;3.90;99.90;;;;;;5004693;28;20207;-88
2022/01/06 01:07:53;;;;;;;21.67;5.27;;;3.90;99.90;;;;;;5003646;28;20222;-87
2022/01/06 01:10:20;;;;;;;20.80;5.87;;;3.80;99.90;;;;;;5005156;28;20222;-88
2022/01/06 01:12:48;;;;;;;23.30;5.83;;;3.80;99.90;;;;;;5006020;28;20241;-87
2022/01/06 01:15:20;;;;;;;27.93;6.50;;;3.80;99.90;;;;;;5004428;28;20222;-88
2022/01/06 01:17:49;;;;;;;20.57;5.33;;;3.80;99.90;;;;;;5020606;28;20455;-88
2022/01/06 01:20:16;;;;;;;34.60;6.83;;;3.70;99.90;;;;;;5019346;28;20708;-88
2022/01/06 01:22:43;;;;;;;28.40;6.23;;;3.70;99.90;;;;;;5004955;28;20245;-88
2022/01/06 01:25:12;;;;;;;30.03;7.40;;;3.70;99.90;;;;;;5005086;28;20238;-88
2022/01/06 01:27:42;;;;;;;20.67;5.33;;;3.60;99.90;;;;;;5007484;28;20304;-88
2022/01/06 01:30:12;;;;;;;26.57;5.97;;;3.60;99.90;;;;;;5006877;28;20214;-88
2022/01/06 01:32:45;;;;;;;25.23;4.93;;;3.60;99.90;;;;;;5007024;28;20334;-88
2022/01/06 01:35:12;;;;;;;26.03;6.50;;;3.60;99.90;;;;;;5008730;28;20202;-88
2022/01/06 01:37:40;;;;;;;25.10;6.77;;;3.60;99.90;;;;;;5006363;28;20789;-88
2022/01/06 01:40:08;;;;;;;31.13;6.30;;;3.60;99.90;;;;;;5024036;28;20210;-88
2022/01/06 01:42:38;;;;;;;23.63;6.10;;;3.60;99.90;;;;;;5012973;28;20241;-86
2022/01/06 01:45:06;;;;;;;21.03;5.83;;;3.60;99.90;;;;;;5006044;28;20650;-88
2022/01/06 01:47:39;;;;;;;34.67;7.17;;;3.50;99.90;;;;;;5023495;28;20235;-89
2022/01/06 01:50:12;;;;;;;23.53;5.40;;;3.50;99.90;;;;;;5023530;28;21574;-87
2022/01/06 01:52:41;;;;;;;22.03;4.83;;;3.50;99.90;;;;;;5014185;28;20210;-87
2022/01/06 01:55:09;;;;;;;26.07;5.43;;;3.50;99.90;;;;;;5008516;28;20784;-86
2022/01/06 01:57:38;;;;;;;22.27;5.73;;;3.50;99.90;;;;;;5007794;28;21000;-87
2022/01/06 02:00:10;;;;;;;23.20;6.03;;;3.50;99.90;;;;;;5008738;28;20207;-87
2022/01/06 02:02:42;;;;;;;24.03;5.53;;;3.50;99.90;;;;;;5010786;28;20257;-87
2022/01/06 02:05:10;;;;;;;26.63;6.33;;;3.50;99.90;;;;;;5020768;28;20233;-87
2022/01/06 02:07:40;;;;;;;20.93;4.80;;;3.50;99.90;;;;;;5006354;28;20309;-87
2022/01/06 02:10:12;;;;;;;29.33;6.37;;;3.50;99.90;;;;;;5007705;28;20294;-86
2022/01/06 02:12:42;;;;;;;24.57;4.90;;;3.60;99.90;;;;;;5006433;28;20642;-88
2022/01/06 02:15:11;;;;;;;21.40;4.77;;;3.60;99.90;;;;;;5017802;28;20201;-86
2022/01/06 02:17:38;;;;;;;23.90;5.23;;;3.60;99.90;;;;;;5016689;22;20654;-68
2022/01/06 02:20:09;;;;;;;20.70;5.03;;;3.60;99.90;;;;;;5026012;28;20213;-68
2022/01/06 02:22:37;;;;;;;25.40;5.43;;;3.60;99.90;;;;;;5022770;28;20240;-68
2022/01/06 02:25:13;;;;;;;32.40;6.13;;;3.60;99.90;;;;;;5026539;28;20253;-68
2022/01/06 02:27:40;;;;;;;14.43;3.50;;;3.60;99.90;;;;;;5025301;28;20229;-68
2022/01/06 02:30:08;;;;;;;23.90;5.40;;;3.60;99.90;;;;;;5024587;28;20218;-67
2022/01/06 02:32:36;;;;;;;16.10;4.47;;;3.60;99.90;;;;;;5024312;28;20210;-68
2022/01/06 02:35:09;;;;;;;26.97;5.07;;;3.50;99.90;;;;;;5021024;28;20691;-67
2022/01/06 02:37:36;;;;;;;20.30;5.47;;;3.50;99.90;;;;;;5026441;28;20194;-68
2022/01/06 02:40:08;;;;;;;25.60;5.73;;;3.50;99.90;;;;;;5024709;28;20533;-67
2022/01/06 02:42:35;;;;;;;32.97;6.20;;;3.50;99.90;;;;;;5026474;28;20210;-67
2022/01/06 02:45:02;;;;;;;28.57;7.10;;;3.50;99.90;;;;;;5019951;28;20475;-67
2022/01/06 02:47:29;;;;;;;20.47;5.10;;;3.60;99.90;;;;;;5014123;28;20230;-67
2022/01/06 02:49:56;;;;;;;24.60;5.87;;;3.60;99.90;;;;;;5015763;28;20214;-67
2022/01/06 02:52:24;;;;;;;23.37;6.10;;;3.70;99.90;;;;;;5017139;28;20210;-67
2022/01/06 02:54:51;;;;;;;24.87;4.87;;;3.70;99.90;;;;;;5012729;28;20210;-68
2022/01/06 02:57:21;;;;;;;25.93;4.90;;;3.80;99.90;;;;;;5017517;28;20226;-67
2022/01/06 02:59:48;;;;;;;17.20;4.33;;;3.80;99.90;;;;;;5010045;28;20307;-67
2022/01/06 03:02:15;;;;;;;22.30;4.37;;;3.90;99.90;;;;;;5019772;28;20206;-68
2022/01/06 03:04:42;;;;;;;17.97;4.53;;;4.00;99.90;;;;;;5015495;28;20214;-68
2022/01/06 03:07:09;;;;;;;37.20;5.70;;;4.00;99.90;;;;;;5008978;28;20284;-68
2022/01/06 03:09:39;;;;;;;31.07;5.73;;;4.10;99.90;;;;;;5014972;28;20288;-68
2022/01/06 03:12:11;;;;;;;34.57;5.73;;;4.20;99.90;;;;;;5012063;28;20541;-70
2022/01/06 03:14:38;;;;;;;28.07;5.13;;;4.20;99.90;;;;;;5003469;28;20205;-68
2022/01/06 03:17:05;;;;;;;17.07;4.03;;;4.20;99.90;;;;;;5020887;28;20337;-68
2022/01/06 03:19:32;;;;;;;30.87;5.43;;;4.30;99.90;;;;;;5024655;28;20713;-68
2022/01/06 03:21:59;;;;;;;26.37;5.20;;;4.30;99.90;;;;;;5026384;28;20197;-68
2022/01/06 03:24:26;;;;;;;26.67;6.03;;;4.30;99.90;;;;;;5026133;28;20679;-68
2022/01/06 03:26:54;;;;;;;20.40;4.33;;;4.20;99.90;;;;;;5027063;28;20228;-70
2022/01/06 03:29:21;;;;;;;23.20;5.43;;;4.20;99.90;;;;;;5024441;28;20733;-70
2022/01/06 03:31:47;;;;;;;24.53;6.13;;;4.20;99.90;;;;;;5033922;28;20541;-67
2022/01/06 03:34:14;;;;;;;26.23;5.37;;;4.20;99.90;;;;;;5023864;28;20237;-70
2022/01/06 03:36:41;;;;;;;19.87;4.67;;;4.10;99.90;;;;;;5032064;28;20233;-68
2022/01/06 03:39:08;;;;;;;20.33;5.43;;;4.00;99.90;;;;;;5026669;28;20216;-68
2022/01/06 03:41:35;;;;;;;28.83;6.83;;;4.00;99.90;;;;;;5021746;28;20655;-68
2022/01/06 03:44:03;;;;;;;24.00;4.67;;;3.90;99.90;;;;;;5026062;28;20206;-67
2022/01/06 03:46:30;;;;;;;22.57;4.43;;;3.80;99.90;;;;;;5022025;28;20463;-68
2022/01/06 03:48:57;;;;;;;19.83;4.70;;;3.80;99.90;;;;;;5025140;28;20287;-68
2022/01/06 03:51:24;;;;;;;25.97;6.23;;;3.70;99.90;;;;;;5025185;28;20206;-68
2022/01/06 03:53:52;;;;;;;24.50;5.00;;;3.70;99.90;;;;;;5022642;28;20661;-68
2022/01/06 03:56:19;;;;;;;27.07;5.83;;;3.60;99.90;;;;;;5026961;28;20316;-68
2022/01/06 03:58:46;;;;;;;27.73;5.33;;;3.50;99.90;;;;;;5020262;28;20217;-68
2022/01/06 04:01:14;;;;;;;22.17;5.07;;;3.50;99.90;;;;;;5025146;28;20279;-68
2022/01/06 04:03:43;;;;;;;26.00;5.30;;;3.50;99.90;;;;;;5024207;28;20217;-68
2022/01/06 04:06:10;;;;;;;24.17;5.53;;;3.40;99.90;;;;;;5021811;28;20234;-68
2022/01/06 04:08:37;;;;;;;19.03;4.67;;;3.40;99.90;;;;;;5026729;28;20236;-68
2022/01/06 04:11:06;;;;;;;27.20;5.37;;;3.30;99.90;;;;;;5022096;28;20787;-67
2022/01/06 04:13:33;;;;;;;22.00;4.53;;;3.30;99.90;;;;;;5026744;28;20528;-68
2022/01/06 04:16:02;;;;;;;19.43;4.97;;;3.30;99.90;;;;;;5009164;28;20257;-68
2022/01/06 04:18:30;;;;;;;20.83;4.73;;;3.30;99.90;;;;;;5024099;28;20206;-68
2022/01/06 04:20:57;;;;;;;22.40;4.90;;;3.30;99.90;;;;;;5029321;28;20267;-67
2022/01/06 04:23:24;;;;;;;17.90;4.40;;;3.30;99.90;;;;;;5020271;28;20685;-68
2022/01/06 04:25:51;;;;;;;20.30;5.27;;;3.30;99.90;;;;;;5025932;28;20244;-68
2022/01/06 04:28:17;;;;;;;33.57;5.30;;;3.30;99.90;;;;;;5022166;28;20283;-68
2022/01/06 04:30:44;;;;;;;24.83;5.17;;;3.30;99.90;;;;;;5022315;28;20206;-68
2022/01/06 04:33:11;;;;;;;22.20;5.03;;;3.30;99.90;;;;;;5025213;28;20217;-68
2022/01/06 04:35:39;;;;;;;25.47;5.20;;;3.20;99.90;;;;;;5021094;28;20299;-68
2022/01/06 04:38:06;;;;;;;29.23;5.70;;;3.20;99.90;;;;;;5026477;28;20198;-68
2022/01/06 04:40:33;;;;;;;29.93;5.70;;;3.20;99.90;;;;;;5021731;28;20218;-68
2022/01/06 04:43:00;;;;;;;32.83;5.30;;;3.10;99.90;;;;;;5022208;28;20271;-67
2022/01/06 04:45:27;;;;;;;22.37;4.70;;;3.10;99.90;;;;;;5026760;28;20244;-69
2022/01/06 04:47:54;;;;;;;25.03;4.93;;;3.00;99.90;;;;;;5022366;28;20226;-69
2022/01/06 04:50:20;;;;;;;30.33;5.03;;;2.90;99.90;;;;;;5025183;28;20206;-69
2022/01/06 04:52:49;;;;;;;28.30;5.57;;;2.90;99.90;;;;;;5020363;28;20685;-69
2022/01/06 04:55:15;;;;;;;31.23;5.73;;;2.80;99.90;;;;;;5018656;28;20663;-68
2022/01/06 04:57:42;;;;;;;28.63;5.57;;;2.80;99.90;;;;;;5024933;28;20210;-68
2022/01/06 05:00:10;;;;;;;25.57;4.93;;;2.70;99.90;;;;;;5008692;28;20222;-67
2022/01/06 05:02:37;;;;;;;23.40;4.97;;;2.70;99.90;;;;;;5024613;28;20244;-68
2022/01/06 05:05:05;;;;;;;31.07;5.30;;;2.70;99.90;;;;;;5009279;28;20280;-68
2022/01/06 05:07:32;;;;;;;29.23;5.70;;;2.70;99.90;;;;;;5023144;28;20694;-68
2022/01/06 05:10:00;;;;;;;22.83;5.63;;;2.60;99.90;;;;;;5023329;28;20434;-69
2022/01/06 05:12:27;;;;;;;23.60;4.87;;;2.60;99.90;;;;;;5022925;28;20206;-70
2022/01/06 05:14:54;;;;;;;26.50;5.40;;;2.60;99.90;;;;;;5008346;28;20238;-70
2022/01/06 05:17:21;;;;;;;34.73;5.77;;;2.50;99.90;;;;;;5023107;28;20234;-69
2022/01/06 05:19:47;;;;;;;25.63;6.00;;;2.50;99.90;;;;;;5024664;28;20205;-69
2022/01/06 05:22:14;;;;;;;19.47;4.47;;;2.50;99.90;;;;;;5022629;28;20218;-69
2022/01/06 05:24:41;;;;;;;24.80;5.60;;;2.40;99.90;;;;;;5019817;28;20587;-69
2022/01/06 05:27:10;;;;;;;24.90;5.30;;;2.30;99.90;;;;;;5023718;28;20229;-69
2022/01/06 05:29:37;;;;;;;28.17;5.60;;;2.20;99.90;;;;;;5019240;28;20224;-69
2022/01/06 05:32:04;;;;;;;28.53;5.10;;;2.10;99.90;;;;;;5023673;28;20201;-69
2022/01/06 05:34:31;;;;;;;22.33;5.03;;;2.10;99.90;;;;;;5021942;28;20213;-69
2022/01/06 05:36:58;;;;;;;28.03;5.80;;;2.00;99.90;;;;;;5023248;28;20237;-69
2022/01/06 05:39:25;;;;;;;25.33;5.63;;;1.90;99.90;;;;;;5027056;28;20197;-69
2022/01/06 05:41:52;;;;;;;30.30;6.10;;;1.80;99.90;;;;;;5021633;28;21100;-70
2022/01/06 05:44:20;;;;;;;23.33;4.77;;;1.80;99.90;;;;;;5026115;28;20291;-69
2022/01/06 05:46:48;;;;;;;31.10;6.27;;;1.70;99.90;;;;;;5019167;28;20234;-69
2022/01/06 05:49:15;;;;;;;31.80;5.63;;;1.70;99.90;;;;;;5022143;28;20233;-69
2022/01/06 05:51:42;;;;;;;24.37;5.73;;;1.60;99.90;;;;;;5023855;28;20227;-69
2022/01/06 05:54:09;;;;;;;30.07;5.00;;;1.60;99.90;;;;;;5020783;28;20679;-70
2022/01/06 05:56:36;;;;;;;29.63;5.53;;;1.60;99.90;;;;;;5025469;28;20234;-70
2022/01/06 05:59:03;;;;;;;27.43;5.50;;;1.60;99.90;;;;;;5020126;28;20565;-69
2022/01/06 06:01:31;;;;;;;36.13;6.40;;;1.60;99.90;;;;;;5023323;28;20221;-69
2022/01/06 06:03:58;;;;;;;28.40;6.00;;;1.50;99.90;;;;;;5022102;28;20202;-69
2022/01/06 06:06:24;;;;;;;32.63;6.83;;;1.50;99.90;;;;;;5023511;28;20276;-69
2022/01/06 06:08:51;;;;;;;27.67;5.93;;;1.50;99.90;;;;;;5007736;28;20222;-69
2022/01/06 06:11:18;;;;;;;29.77;5.80;;;1.40;99.90;;;;;;5019876;28;20218;-69
2022/01/06 06:13:45;;;;;;;29.37;5.80;;;1.40;99.90;;;;;;5027968;28;20205;-69
2022/01/06 06:16:12;;;;;;;20.97;5.13;;;1.40;99.90;;;;;;5010070;28;20298;-69
2022/01/06 06:18:40;;;;;;;33.50;6.20;;;1.40;99.90;;;;;;5028928;28;20263;-69
2022/01/06 06:21:07;;;;;;;21.50;5.10;;;1.30;99.90;;;;;;5026740;28;20209;-69
2022/01/06 06:23:34;;;;;;;29.80;5.90;;;1.30;99.90;;;;;;5023958;28;20634;-69
2022/01/06 06:26:00;;;;;;;27.20;5.87;;;1.20;99.90;;;;;;5030049;28;20247;-69
2022/01/06 06:28:27;;;;;;;32.70;5.70;;;1.10;99.90;;;;;;5024445;28;20284;-69
2022/01/06 06:30:54;;;;;;;27.57;5.70;;;1.20;99.90;;;;;;5024649;28;20213;-70
2022/01/06 06:33:21;;;;;;;29.47;5.93;;;1.20;99.90;;;;;;5027309;28;20279;-69
2022/01/06 06:35:49;;;;;;;30.27;6.17;;;1.10;99.90;;;;;;5023249;28;20703;-70
2022/01/06 06:38:16;;;;;;;27.00;6.10;;;1.10;99.90;;;;;;5028814;28;20195;-69
2022/01/06 06:40:43;;;;;;;37.57;5.90;;;1.10;99.90;;;;;;5025897;28;20590;-69
2022/01/06 06:43:12;;;;;;;30.27;6.10;;;1.10;99.90;;;;;;5022620;28;20245;-69
2022/01/06 06:45:39;;;;;;;35.27;6.63;;;1.10;99.90;;;;;;5027416;28;20320;-69
2022/01/06 06:48:07;;;;;;;30.80;5.73;;;1.10;99.90;;;;;;5024689;28;20202;-69
2022/01/06 06:50:34;;;;;;;27.47;5.77;;;1.10;99.90;;;;;;5026379;28;20301;-69
2022/01/06 06:53:03;;;;;;;23.67;4.67;;;1.00;99.90;;;;;;5011498;28;20632;-69
2022/01/06 06:55:30;;;;;;;36.33;6.23;;;1.00;99.90;;;;;;5023465;28;20623;-69
2022/01/06 06:57:57;;;;;;;37.53;6.17;;;0.90;99.90;;;;;;5010262;28;20631;-69
2022/01/06 07:00:24;;;;;;;30.93;6.13;;;0.90;99.90;;;;;;5023933;28;20210;-70
2022/01/06 07:02:51;;;;;;;32.97;6.50;;;0.90;99.90;;;;;;5026316;28;20213;-70
2022/01/06 07:05:18;;;;;;;29.30;6.53;;;1.00;99.90;;;;;;5026253;28;20213;-70
2022/01/06 07:07:45;;;;;;;27.77;6.30;;;1.00;99.90;;;;;;5023319;28;20596;-70
2022/01/06 07:10:14;;;;;;;29.90;5.60;;;1.00;99.90;;;;;;5027735;28;20271;-70
2022/01/06 07:12:42;;;;;;;29.57;5.90;;;1.00;99.90;;;;;;5023700;28;20214;-69
2022/01/06 07:15:11;;;;;;;30.57;6.57;;;1.00;99.90;;;;;;5025503;28;20281;-70
2022/01/06 07:17:38;;;;;;;25.63;6.33;;;1.00;99.90;;;;;;5028574;28;20291;-68
2022/01/06 07:20:06;;;;;;;26.73;5.97;;;1.00;99.90;;;;;;5024757;28;20435;-68
2022/01/06 07:22:33;;;;;;;32.17;6.53;;;0.90;99.90;;;;;;5027008;28;20210;-68
2022/01/06 07:27:43;;;;;;;34.47;6.73;;;0.90;99.90;;;;;;5433373;22;20223;-67
2022/01/06 07:30:11;;;;;;;47.87;10.87;;;0.90;99.90;;;;;;4976367;28;20235;-68
2022/01/06 07:32:46;;;;;;;32.03;8.27;;;1.00;99.90;;;;;;4986897;28;20269;-68
2022/01/06 07:35:13;;;;;;;26.27;6.77;;;1.10;99.90;;;;;;4986765;28;20365;-67
2022/01/06 07:37:40;;;;;;;28.90;6.40;;;1.20;99.90;;;;;;4984563;28;20223;-68
2022/01/06 07:40:08;;;;;;;32.30;6.07;;;1.30;99.90;;;;;;4988598;28;20313;-67
2022/01/06 07:42:36;;;;;;;31.47;6.07;;;1.40;99.90;;;;;;4986147;28;20218;-68
2022/01/06 07:45:05;;;;;;;36.37;6.93;;;1.30;99.90;;;;;;4993159;28;20210;-68
2022/01/06 07:47:33;;;;;;;37.07;6.23;;;1.40;99.90;;;;;;4985954;28;20263;-68
2022/01/06 07:50:01;;;;;;;27.67;6.47;;;1.50;99.90;;;;;;4990274;28;20277;-68
2022/01/06 07:52:27;;;;;;;28.40;6.47;;;1.50;99.90;;;;;;4990600;28;20215;-68
2022/01/06 07:54:54;;;;;;;30.20;6.83;;;1.50;99.90;;;;;;4988962;28;20218;-68
2022/01/06 07:57:22;;;;;;;31.63;6.50;;;1.50;99.90;;;;;;4988904;28;20325;-68
2022/01/06 07:59:49;;;;;;;17.97;5.83;;;1.50;99.90;;;;;;4985395;28;20203;-68
2022/01/06 08:02:17;;;;;;;37.53;7.10;;;1.60;99.90;;;;;;4975943;28;20234;-68
2022/01/06 08:04:44;;;;;;;29.03;7.13;;;1.70;99.90;;;;;;4981831;28;20215;-68
2022/01/06 08:07:12;;;;;;;29.33;6.40;;;2.10;99.90;;;;;;4984201;28;20294;-68
2022/01/06 08:09:43;;;;;;;33.63;7.57;;;1.70;99.90;;;;;;4977682;28;20454;-68
2022/01/06 08:12:10;;;;;;;23.57;6.67;;;1.60;99.90;;;;;;4998380;28;20206;-68
2022/01/06 08:14:37;;;;;;;28.17;6.93;;;1.70;99.90;;;;;;4989656;28;20219;-67
2022/01/06 08:17:04;;;;;;;33.50;7.03;;;1.80;99.90;;;;;;4985133;28;20227;-68
2022/01/06 08:19:33;;;;;;;34.90;6.80;;;1.90;99.90;;;;;;4984298;28;20805;-68
2022/01/06 08:21:59;;;;;;;32.87;7.13;;;2.00;99.90;;;;;;4995646;28;20207;-68
2022/01/06 08:24:26;;;;;;;35.00;7.60;;;2.20;99.90;;;;;;4986439;28;20210;-68
2022/01/06 08:26:55;;;;;;;24.87;6.97;;;2.30;99.90;;;;;;4986242;28;20325;-68
2022/01/06 08:29:21;;;;;;;34.33;7.70;;;2.50;99.90;;;;;;4981709;28;20298;-68
2022/01/06 08:31:48;;;;;;;36.47;8.50;;;2.60;99.90;;;;;;4985566;28;20270;-68
2022/01/06 08:34:16;;;;;;;34.30;7.17;;;2.60;99.90;;;;;;4984490;28;20222;-67
2022/01/06 08:36:44;;;;;;;32.73;8.20;;;2.80;99.90;;;;;;4987506;28;20572;-67
2022/01/06 08:39:10;;;;;;;34.93;7.00;;;2.90;99.90;;;;;;4991785;28;20211;-67
2022/01/06 08:41:39;;;;;;;31.43;7.87;;;3.10;99.90;;;;;;4986008;28;20289;-67
2022/01/06 08:44:06;;;;;;;32.13;7.13;;;3.30;99.90;;;;;;4984830;28;20230;-68
2022/01/06 08:46:33;;;;;;;37.87;8.10;;;4.60;99.90;;;;;;4984479;28;20238;-67
2022/01/06 08:49:00;;;;;;;34.37;7.50;;;3.80;99.90;;;;;;4986506;28;20238;-67
2022/01/06 08:51:26;;;;;;;34.10;7.10;;;4.00;99.90;;;;;;4991928;28;20251;-68
2022/01/06 08:53:54;;;;;;;32.90;7.40;;;4.20;99.90;;;;;;4991992;28;20256;-68
2022/01/06 08:56:21;;;;;;;;;;;4.40;99.90;;;;;;4984555;28;20837;-67
2022/01/06 08:58:48;;;;;;;;;;;4.60;99.90;;;;;;4996245;28;20358;-68
2022/01/06 09:01:14;;;;;;;;;;;4.70;99.90;;;;;;4992215;28;20378;-68
2022/01/06 09:03:41;;;;;;;;;;;4.80;99.90;;;;;;4989535;28;19940;-68
2022/01/06 09:06:08;;;;;;;;;;;4.80;99.90;;;;;;4989277;28;19925;-68
2022/01/06 09:08:35;;;;;;;;;;;4.80;99.90;;;;;;4985451;28;20182;-68
2022/01/06 09:11:03;;;;;;;;;;;4.80;99.90;;;;;;4988166;28;19936;-68
2022/01/06 09:13:30;;;;;;;;;;;4.80;99.90;;;;;;4993685;28;19926;-69
2022/01/06 09:15:56;;;;;;;;;;;4.80;99.90;;;;;;4981644;28;19930;-69
2022/01/06 09:18:23;;;;;;;;;;;4.90;99.90;;;;;;4983144;28;20308;-69
2022/01/06 09:20:50;;;;;;;;;;;4.90;99.90;;;;;;4987018;28;19926;-69
2022/01/06 09:23:17;;;;;;;;;;;5.00;99.90;;;;;;4991692;28;19979;-69
2022/01/06 09:25:43;;;;;;;;;;;5.00;99.90;;;;;;4989842;28;19933;-69
2022/01/06 09:28:12;;;;;;;;;;;5.00;99.90;;;;;;4987631;28;20379;-69
2022/01/06 09:30:38;;;;;;;;;;;5.10;99.90;;;;;;4997171;28;20105;-69
2022/01/06 09:33:05;;;;;;;;;;;5.10;99.90;;;;;;4974298;28;19948;-69
2022/01/06 09:35:32;;;;;;;;;;;5.20;99.90;;;;;;4985876;28;19926;-69
2022/01/06 09:37:58;;;;;;;;;;;5.20;99.90;;;;;;4984279;28;20043;-69
2022/01/06 09:40:25;;;;;;;;;;;5.30;99.90;;;;;;4984462;28;19952;-69
2022/01/06 09:42:54;;;;;;;;;;;5.30;99.90;;;;;;4987119;28;19984;-69
2022/01/06 09:45:24;;;;;;;;;;;5.40;99.90;;;;;;4989890;28;19961;-69
2022/01/06 09:47:51;;;;;;;;;;;5.40;99.90;;;;;;4989461;28;20027;-68
2022/01/06 09:50:18;;;;;;;;;;;5.50;99.90;;;;;;4987980;28;19930;-68
2022/01/06 09:52:45;;;;;;;;;;;5.50;99.90;;;;;;4990949;28;20326;-68
2022/01/06 09:55:12;;;;;;;;;;;5.60;99.90;;;;;;4990366;28;19922;-68
2022/01/06 09:57:38;;;;;;;;;;;5.60;99.90;;;;;;4974078;28;19926;-68
2022/01/06 10:00:08;;;;;;;;;;;5.70;99.90;;;;;;4986763;28;19925;-68
2022/01/06 10:02:40;;;;;;;;;;;5.70;99.90;;;;;;4988618;28;19929;-69
2022/01/06 10:05:07;;;;;;;;;;;5.80;99.90;;;;;;4991995;28;19926;-68
2022/01/06 10:07:37;;;;;;;;;;;5.90;99.90;;;;;;4996419;28;19936;-68
2022/01/06 10:10:05;;;;;;;;;;;6.00;99.90;;;;;;4984163;28;20418;-68
2022/01/06 10:12:32;;;;;;;;;;;6.10;99.90;;;;;;5001260;28;20276;-68
2022/01/06 10:15:00;;;;;;;;;;;6.20;99.90;;;;;;5002370;28;19926;-68
2022/01/06 10:17:30;;;;;;;;;;;6.30;99.90;;;;;;4988774;28;19934;-67
2022/01/06 10:20:08;;;;;;;;;;;6.40;99.90;;;;;;4987471;28;20458;-70
2022/01/06 10:22:43;;;;;;;;;;;6.50;99.90;;;;;;4984947;28;20410;-68
2022/01/06 10:25:09;;;;;;;;;;;6.70;99.90;;;;;;4986719;28;19930;-68
2022/01/06 10:27:38;;;;;;;;;;;6.70;99.90;;;;;;4983335;28;19932;-68
2022/01/06 10:30:06;;;;;;;;;;;6.80;99.90;;;;;;4992954;28;20401;-68
2022/01/06 10:32:33;;;;;;;;;;;6.90;99.90;;;;;;4991787;28;19929;-68
2022/01/06 10:35:03;;;;;;;;;;;7.00;99.90;;;;;;4989751;28;19933;-68
2022/01/06 10:37:31;;;;;;;;;;;7.10;99.90;;;;;;4989128;28;20326;-68
2022/01/06 10:39:58;;;;;;;;;;;7.20;99.90;;;;;;4986622;28;19929;-68
2022/01/06 10:42:26;;;;;;;;;;;7.30;99.90;;;;;;4986339;28;20044;-68
2022/01/06 10:44:54;;;;;;;;;;;7.40;99.90;;;;;;4992111;28;19926;-69
2022/01/06 10:47:31;;;;;;;;;;;7.40;99.90;;;;;;4987993;28;20016;-69
2022/01/06 10:50:12;;;;;;;;;;;7.50;99.90;;;;;;4991679;28;20036;-69
2022/01/06 10:52:40;;;;;;;;;;;7.70;99.90;;;;;;4968824;28;19921;-68
2022/01/06 10:57:57;;;;;;;;;;;7.70;99.90;;;;;;5336857;23;20067;-69
2022/01/06 11:00:24;;;;;;;;;;;7.70;99.90;;;;;;4999502;28;19944;-68
2022/01/06 11:02:51;;;;;;;;;;;7.70;99.90;;;;;;5007596;28;19922;-68
2022/01/06 11:05:19;;;;;;;;;;;7.70;99.90;;;;;;4986507;28;19925;-68
2022/01/06 11:07:46;;;;;;;;;;;7.70;99.90;;;;;;5004394;28;19930;-68
2022/01/06 11:12:41;;;;;;;;;;;7.50;99.90;;;;;;5013114;28;19925;-85
2022/01/06 11:15:08;;;;;;;;;;;7.50;99.90;;;;;;5017271;28;20513;-85
2022/01/06 11:17:35;;;;;;;;;;;7.30;99.90;;;;;;5008994;28;20401;-85
2022/01/06 11:20:02;;;;;;;;;;;7.10;99.90;;;;;;5017617;28;19921;-87
2022/01/06 11:22:30;;;;;;;;;;;7.10;99.90;;;;;;5002777;28;19929;-88
2022/01/06 11:24:59;;;;;;;;;;;7.00;99.90;;;;;;5018844;28;19948;-85
2022/01/06 11:27:30;;;;;;;;;;;7.00;99.90;;;;;;5000979;28;19929;-84
2022/01/06 11:30:07;;;;;;;;;;;7.00;99.90;;;;;;4988246;28;20295;-87
2022/01/06 11:32:33;;;;;;;;;;;7.00;99.90;;;;;;5017322;28;19956;-84
2022/01/06 11:35:02;;;;;;;;;;;7.20;99.90;;;;;;5016506;28;19975;-88
2022/01/06 11:37:40;;;;;;;;;;;7.30;99.90;;;;;;4992307;28;19925;-88
2022/01/06 11:40:07;;;;;;;;;;;7.40;99.90;;;;;;5014037;28;19925;-84
2022/01/06 11:42:34;;;;;;;;;;;7.40;99.90;;;;;;5014141;28;19925;-85
2022/01/06 11:45:03;;;;;;;;;;;7.50;99.90;;;;;;4997874;28;20234;-86
2022/01/06 11:47:31;;;;;;;;;;;7.40;99.90;;;;;;5021890;28;19922;-85
2022/01/06 11:50:12;;;;;;;;;;;7.40;99.90;;;;;;5001305;28;20007;-86
2022/01/06 11:52:51;;;;;;;;;;;7.30;99.90;;;;;;5005336;28;19925;-87
2022/01/06 11:55:19;;;;;;;;;;;7.30;99.90;;;;;;4994103;28;20367;-87
2022/01/06 11:57:46;;;;;;;;;;;7.40;99.90;;;;;;5015516;28;20023;-90
2022/01/06 12:00:20;;;;;;;;;;;7.70;99.90;;;;;;5033092;28;19909;-89
2022/01/06 12:02:57;;;;;;;;;;;7.50;99.90;;;;;;5029681;28;19989;-87
2022/01/06 12:05:24;;;;;;;;;;;7.50;99.90;;;;;;5012510;28;19929;-86
2022/01/06 12:07:53;;;;;;;;;;;7.50;99.90;;;;;;5011240;28;19933;-87
2022/01/06 12:10:20;;;;;;;;;;;7.40;99.90;;;;;;5007773;28;19925;-87
2022/01/06 12:12:49;;;;;;;;;;;7.30;99.90;;;;;;4993603;28;19931;-87
2022/01/06 12:15:17;;;;;;;;;;;7.30;99.90;;;;;;5016985;28;19937;-88
2022/01/06 12:17:45;;;;;;;;;;;7.30;99.90;;;;;;4998139;28;20012;-87
2022/01/06 12:20:12;;;;;;;;;;;7.50;99.90;;;;;;4989700;28;19945;-86
2022/01/06 12:22:38;;;;;;;;;;;7.70;99.90;;;;;;5010971;28;19921;-88
2022/01/06 12:25:07;;;;;;;;;;;7.90;99.90;;;;;;5005548;28;19921;-90
2022/01/06 12:27:43;;;;;;;;;;;7.70;99.90;;;;;;5006938;28;19925;-88
2022/01/06 12:30:11;;;;;;;;;;;7.60;99.90;;;;;;4992422;28;19926;-89
2022/01/06 12:32:37;;;;;;;;;;;7.50;99.90;;;;;;5007650;28;19925;-88
2022/01/06 12:35:05;;;;;;;;;;;7.50;99.90;;;;;;4992959;28;19932;-88
2022/01/06 12:37:31;;;;;;;;;;;7.40;99.90;;;;;;4993001;28;19921;-88
2022/01/06 12:40:00;;;;;;;;;;;7.40;99.90;;;;;;4994102;28;20012;-89
2022/01/06 12:42:28;;;;;;;;;;;7.40;99.90;;;;;;5021618;28;19929;-90
2022/01/06 12:44:54;;;;;;;;;;;7.50;99.90;;;;;;5032390;28;19920;-89
2022/01/06 12:47:21;;;;;;;;;;;7.50;99.90;;;;;;5012366;28;19929;-89
2022/01/06 12:49:58;;;;;;;;;;;7.50;99.90;;;;;;5013095;28;19940;-88
2022/01/06 12:52:25;;;;;;;;;;;7.60;99.90;;;;;;5015930;28;19910;-88
2022/01/06 12:54:52;;;;;;;;;;;7.70;99.90;;;;;;5013181;28;20000;-89
2022/01/06 12:57:19;;;;;;;;;;;7.80;99.90;;;;;;5031230;28;19909;-86
2022/01/06 12:59:52;;;;;;;;;;;7.80;99.90;;;;;;5029769;28;19948;-87
2022/01/06 13:02:19;;;;;;;;;;;7.70;99.90;;;;;;5025579;28;19910;-88
2022/01/06 13:04:47;;;;;;;;;;;7.70;99.90;;;;;;5015662;28;19925;-88
2022/01/06 13:07:14;;;;;;;;;;;7.60;99.90;;;;;;5027303;28;19933;-87
2022/01/06 13:09:42;;;;;;;;;;;7.60;99.90;;;;;;5030332;28;19936;-88
2022/01/06 13:12:09;;;;;;;;;;;7.60;99.90;;;;;;5021086;28;19979;-88
2022/01/06 13:14:38;;;;;;;;;;;7.70;99.90;;;;;;5012096;28;19925;-87
2022/01/06 13:17:07;;;;;;;;;;;7.80;99.90;;;;;;5004082;28;20460;-89
2022/01/06 13:19:35;;;;;;;;;;;7.80;99.90;;;;;;5000163;28;19925;-87
2022/01/06 13:22:05;;;;;;;;;;;7.90;99.90;;;;;;4993039;28;20337;-87
2022/01/06 13:24:33;;;;;;;;;;;7.90;99.90;;;;;;4991526;28;19932;-87
2022/01/06 13:27:01;;;;;;;;;;;8.10;99.90;;;;;;4991211;28;19936;-87
2022/01/06 13:29:29;;;;;;;;;;;8.10;99.90;;;;;;4990978;28;19926;-87
2022/01/06 13:32:04;;;;;;;;;;;8.00;99.90;;;;;;5015698;28;19909;-88
2022/01/06 13:34:32;;;;;;;;;;;7.90;99.90;;;;;;5011675;28;19941;-86